Airfield :
LOGIN :

Register | Disclaimer

   EN    FR    IT 

 










Legend :    VFR   Marginal VFR   IFR   Intensive IFR   Very Intensive IFR
Visi :
Ceiling :
>= 8 km
>= 3000ft
5 to 8 km
1000 to 3000 ft
1500m to 5 km
500 to 1000 ft
800 to 1500m
200 to 500 ft
< 800m
< 200 ft
Symbols :   Thunderstorms  Fog  Heavy snow  Heavy precipitations  Wind > 20 kt
SIGMETs :     Misc.  Thunderstorms  Icing  Turbulence  Mountain Waves  Volcanic Ashes







- Airport Elevation : 187 ft


LPMR - Monte Real Air Base

CURRENT METAR :
  • 242000Z 27008KT 240V300 9999 FEW018 SCT035 13/10 Q1005

EXPIRED METARs :
  • 241900Z 25008KT 9999 SCT018 SCT030 13/11 Q1005
  • 241800Z 24009KT 9999 FEW018 BKN025 12/11 Q1004
  • 241700Z 27009KT 4000 -RA SCT013 BKN018 11/11 Q1004

TAF TAF LPMR
Valid from the 24 at 18:00 until the 25 at 18:00 UTC


241710Z 2418/2518 27012KT 7000 -RA SCT012 BKN020
TEMPO 2418/2419 26018G30KT 2000 +RADZ SCT005 BKN012
BECMG 2418/2421 9999 NSW SCT020
PROB30
TEMPO 2419/2518 28018G30KT 4000 SHRA BKN014 FEW020TCU
No reported NOTAMs for that airfield.



MET'MAP, your aeronautical weather chart ! - Copyright ORBIFLY December 2007 - Disclaimer

ORBIFLY MET'MAP TEAM :

Programming & Development : Alexandra Zaïnal
Concept & Development : Baudouin d'Aumeries
Co-Development & Prog : Marc-Olivier Méhu
Technical & hardware support : Manuel Goepfert

Contact : metmap@orbifly.com




SOURCES & CREDITS :

   NOAA